RYR3ZW EDDB-EETN
Flight info
| Callsign | RYR3ZW |
|---|---|
| Flight time | 1h 28m |
| Altitude | 37000 |
| Route | GERGA4B/06L GERGA M725 RENKI L132 DEMUR N746 GORPI DCT ANFEV DCT DIPEB DCT ETHUV DCT ADBIB DCT SULUN |
| Aircraft | B738/M-SDE2E3FGHIRWXY/LB1 |
Departure
| Time | 2026-05-05 16:13 |
|---|---|
| Airport | Berlin Brandenburg Airport (EDDB) |
Arrival
| Time | 2026-05-05 17:41 |
|---|---|
| Airport | Lennart Meri Tallinn Airport (EETN) |
| Time | Latitude | Longitude | Altitude | Speed | Heading |
|---|---|---|---|---|---|
| 2026-05-05 15:18 | 52.36814 | 13.50862 | 154 ft | 0 kts | 159° |
| 2026-05-05 15:57 | 52.36815 | 13.50862 | 154 ft | 2 kts | 159° |
| 2026-05-05 15:58 | 52.36830 | 13.50852 | 154 ft | 2 kts | 162° |
| 2026-05-05 15:58 | 52.36846 | 13.50845 | 154 ft | 2 kts | 166° |
| 2026-05-05 15:58 | 52.36862 | 13.50840 | 154 ft | 2 kts | 174° |
| 2026-05-05 15:58 | 52.36878 | 13.50840 | 154 ft | 2 kts | 192° |
| 2026-05-05 15:59 | 52.36893 | 13.50850 | 154 ft | 2 kts | 224° |
| 2026-05-05 15:59 | 52.36901 | 13.50869 | 154 ft | 1 kts | 246° |
| 2026-05-05 15:59 | 52.36903 | 13.50874 | 154 ft | 0 kts | 247° |
| 2026-05-05 15:59 | 52.36902 | 13.50871 | 154 ft | 0 kts | 247° |
| 2026-05-05 16:03 | 52.36902 | 13.50870 | 154 ft | 1 kts | 247° |
| 2026-05-05 16:04 | 52.36895 | 13.50846 | 154 ft | 4 kts | 247° |
| 2026-05-05 16:04 | 52.36878 | 13.50781 | 154 ft | 8 kts | 248° |
| 2026-05-05 16:04 | 52.36867 | 13.50722 | 154 ft | 7 kts | 252° |
| 2026-05-05 16:04 | 52.36847 | 13.50630 | 154 ft | 10 kts | 246° |
| 2026-05-05 16:05 | 52.36814 | 13.50507 | 154 ft | 9 kts | 246° |
| 2026-05-05 16:05 | 52.36808 | 13.50482 | 154 ft | 4 kts | 247° |
| 2026-05-05 16:05 | 52.36804 | 13.50465 | 154 ft | 6 kts | 247° |
| 2026-05-05 16:05 | 52.36797 | 13.50434 | 154 ft | 2 kts | 251° |
| 2026-05-05 16:06 | 52.36788 | 13.50391 | 154 ft | 6 kts | 251° |
| 2026-05-05 16:06 | 52.36783 | 13.50366 | 154 ft | 0 kts | 251° |
| 2026-05-05 16:06 | 52.36782 | 13.50364 | 154 ft | 1 kts | 251° |
| 2026-05-05 16:06 | 52.36778 | 13.50345 | 154 ft | 4 kts | 251° |
| 2026-05-05 16:07 | 52.36766 | 13.50285 | 154 ft | 1 kts | 251° |
| 2026-05-05 16:07 | 52.36763 | 13.50233 | 154 ft | 8 kts | 277° |
| 2026-05-05 16:07 | 52.36798 | 13.50161 | 154 ft | 11 kts | 340° |
| 2026-05-05 16:07 | 52.36820 | 13.50135 | 154 ft | 3 kts | 301° |
| 2026-05-05 16:08 | 52.36814 | 13.50099 | 154 ft | 4 kts | 250° |
| 2026-05-05 16:08 | 52.36799 | 13.50031 | 154 ft | 9 kts | 250° |
| 2026-05-05 16:08 | 52.36772 | 13.49918 | 154 ft | 13 kts | 248° |
| 2026-05-05 16:08 | 52.36737 | 13.49767 | 154 ft | 16 kts | 248° |
| 2026-05-05 16:09 | 52.36701 | 13.49619 | 154 ft | 15 kts | 248° |
| 2026-05-05 16:09 | 52.36664 | 13.49459 | 154 ft | 17 kts | 248° |
| 2026-05-05 16:09 | 52.36622 | 13.49282 | 154 ft | 12 kts | 249° |
| 2026-05-05 16:09 | 52.36586 | 13.49129 | 155 ft | 17 kts | 249° |
| 2026-05-05 16:10 | 52.36544 | 13.48950 | 154 ft | 20 kts | 249° |
| 2026-05-05 16:10 | 52.36514 | 13.48789 | 154 ft | 6 kts | 242° |
| 2026-05-05 16:10 | 52.36486 | 13.48704 | 153 ft | 10 kts | 246° |
| 2026-05-05 16:10 | 52.36452 | 13.48569 | 153 ft | 15 kts | 248° |
| 2026-05-05 16:11 | 52.36456 | 13.48410 | 153 ft | 12 kts | 335° |
| 2026-05-05 16:11 | 52.36754 | 13.48436 | 154 ft | 20 kts | 68° |
| 2026-05-05 16:12 | 52.36812 | 13.48682 | 154 ft | 31 kts | 69° |
| 2026-05-05 16:12 | 52.37308 | 13.50782 | 157 ft | 160 kts | 70° |
| 2026-05-05 16:13 | 52.38691 | 13.56476 | 2006 ft | 201 kts | 68° |
| 2026-05-05 16:13 | 52.39170 | 13.58551 | 2203 ft | 222 kts | 68° |
| 2026-05-05 16:13 | 52.39710 | 13.60983 | 2827 ft | 232 kts | 68° |
| 2026-05-05 16:14 | 52.40902 | 13.66051 | 3972 ft | 244 kts | 68° |
| 2026-05-05 16:14 | 52.42155 | 13.71327 | 4992 ft | 252 kts | 69° |
| 2026-05-05 16:15 | 52.43434 | 13.76764 | 6048 ft | 261 kts | 69° |
| 2026-05-05 16:15 | 52.45609 | 13.81378 | 7166 ft | 264 kts | 40° |
| 2026-05-05 16:16 | 52.48437 | 13.85455 | 8169 ft | 282 kts | 40° |
| 2026-05-05 16:16 | 52.51480 | 13.89894 | 9619 ft | 299 kts | 40° |
| 2026-05-05 16:17 | 52.54684 | 13.94598 | 10686 ft | 331 kts | 40° |
| 2026-05-05 16:17 | 52.56443 | 13.97187 | 11192 ft | 345 kts | 40° |
| 2026-05-05 16:18 | 52.60318 | 14.01829 | 12712 ft | 353 kts | 15° |
| 2026-05-05 16:18 | 52.62733 | 14.02383 | 13578 ft | 351 kts | 354° |
| 2026-05-05 16:18 | 52.67611 | 14.01373 | 15176 ft | 358 kts | 348° |
| 2026-05-05 16:19 | 52.70085 | 14.00780 | 15632 ft | 360 kts | 348° |
| 2026-05-05 16:19 | 52.72587 | 14.00207 | 15848 ft | 363 kts | 349° |
| 2026-05-05 16:19 | 52.77590 | 13.99127 | 15866 ft | 363 kts | 349° |
| 2026-05-05 16:20 | 52.82601 | 13.98062 | 15872 ft | 363 kts | 349° |
| 2026-05-05 16:20 | 52.87623 | 13.96993 | 15870 ft | 364 kts | 349° |
| 2026-05-05 16:21 | 52.92649 | 13.97831 | 15879 ft | 374 kts | 21° |
| 2026-05-05 16:22 | 52.99051 | 14.05328 | 15858 ft | 376 kts | 35° |
| 2026-05-05 16:22 | 53.03210 | 14.10578 | 15865 ft | 375 kts | 35° |
| 2026-05-05 16:23 | 53.07377 | 14.15777 | 15870 ft | 374 kts | 34° |
| 2026-05-05 16:23 | 53.09466 | 14.18374 | 15864 ft | 374 kts | 34° |
| 2026-05-05 16:23 | 53.13649 | 14.23575 | 16026 ft | 380 kts | 34° |
| 2026-05-05 16:24 | 53.15781 | 14.26231 | 16836 ft | 383 kts | 34° |
| 2026-05-05 16:24 | 53.21728 | 14.33657 | 19089 ft | 392 kts | 34° |
| 2026-05-05 16:25 | 53.23930 | 14.36411 | 19701 ft | 398 kts | 34° |
| 2026-05-05 16:25 | 53.28518 | 14.41785 | 20992 ft | 407 kts | 24° |
| 2026-05-05 16:25 | 53.31091 | 14.43779 | 21629 ft | 410 kts | 20° |
| 2026-05-05 16:26 | 53.36405 | 14.47560 | 22860 ft | 420 kts | 19° |
| 2026-05-05 16:26 | 53.41849 | 14.51445 | 23997 ft | 430 kts | 19° |
| 2026-05-05 16:27 | 53.44604 | 14.53442 | 24517 ft | 433 kts | 19° |
| 2026-05-05 16:27 | 53.47382 | 14.55473 | 25044 ft | 437 kts | 19° |
| 2026-05-05 16:27 | 53.50184 | 14.57531 | 25557 ft | 442 kts | 19° |
| 2026-05-05 16:27 | 53.53007 | 14.59611 | 26043 ft | 446 kts | 19° |
| 2026-05-05 16:28 | 53.55859 | 14.61718 | 26518 ft | 450 kts | 19° |
| 2026-05-05 16:28 | 53.58737 | 14.63847 | 26989 ft | 453 kts | 19° |
| 2026-05-05 16:28 | 53.61628 | 14.65989 | 27475 ft | 457 kts | 19° |
| 2026-05-05 16:28 | 53.64557 | 14.68161 | 27934 ft | 461 kts | 19° |
| 2026-05-05 16:29 | 53.67504 | 14.70350 | 28380 ft | 465 kts | 19° |
| 2026-05-05 16:29 | 53.70470 | 14.72556 | 28812 ft | 468 kts | 18° |
| 2026-05-05 16:29 | 53.73459 | 14.74784 | 29275 ft | 471 kts | 18° |
| 2026-05-05 16:29 | 53.76469 | 14.77029 | 29706 ft | 474 kts | 18° |
| 2026-05-05 16:30 | 53.79497 | 14.79291 | 30089 ft | 477 kts | 18° |
| 2026-05-05 16:30 | 53.82538 | 14.81567 | 30440 ft | 480 kts | 18° |
| 2026-05-05 16:30 | 53.85604 | 14.83867 | 30840 ft | 482 kts | 18° |
| 2026-05-05 16:30 | 53.88676 | 14.86174 | 31194 ft | 485 kts | 18° |
| 2026-05-05 16:31 | 53.91764 | 14.88497 | 31616 ft | 485 kts | 18° |
| 2026-05-05 16:31 | 53.94833 | 14.90814 | 32176 ft | 481 kts | 18° |
| 2026-05-05 16:31 | 53.97886 | 14.93121 | 32764 ft | 478 kts | 18° |
| 2026-05-05 16:31 | 54.00914 | 14.95411 | 33285 ft | 475 kts | 18° |
| 2026-05-05 16:32 | 54.03930 | 14.97691 | 33738 ft | 475 kts | 18° |
| 2026-05-05 16:32 | 54.06946 | 14.99976 | 34155 ft | 474 kts | 18° |
| 2026-05-05 16:32 | 54.09955 | 15.02256 | 34502 ft | 474 kts | 18° |
| 2026-05-05 16:32 | 54.12980 | 15.04541 | 34824 ft | 475 kts | 18° |
| 2026-05-05 16:33 | 54.15997 | 15.06821 | 35193 ft | 474 kts | 18° |
| 2026-05-05 16:33 | 54.19005 | 15.09099 | 35574 ft | 472 kts | 18° |
| 2026-05-05 16:33 | 54.22002 | 15.11372 | 35925 ft | 472 kts | 18° |
| 2026-05-05 16:33 | 54.25000 | 15.13650 | 36250 ft | 472 kts | 19° |
| 2026-05-05 16:34 | 54.28003 | 15.15936 | 36586 ft | 471 kts | 19° |
| 2026-05-05 16:34 | 54.30997 | 15.18220 | 36935 ft | 471 kts | 19° |
| 2026-05-05 16:34 | 54.37041 | 15.22838 | 36914 ft | 476 kts | 19° |
| 2026-05-05 16:35 | 54.43039 | 15.27453 | 36893 ft | 468 kts | 19° |
| 2026-05-05 16:35 | 54.48973 | 15.32044 | 36917 ft | 468 kts | 19° |
| 2026-05-05 16:36 | 54.54874 | 15.36621 | 36945 ft | 469 kts | 19° |
| 2026-05-05 16:36 | 54.60828 | 15.41253 | 36915 ft | 470 kts | 20° |
| 2026-05-05 16:37 | 54.66786 | 15.45906 | 36915 ft | 471 kts | 20° |
| 2026-05-05 16:37 | 54.72750 | 15.50578 | 36904 ft | 471 kts | 20° |
| 2026-05-05 16:38 | 54.78721 | 15.55271 | 36933 ft | 471 kts | 20° |
| 2026-05-05 16:38 | 54.84697 | 15.59982 | 36915 ft | 471 kts | 20° |
| 2026-05-05 16:39 | 54.90608 | 15.64937 | 36902 ft | 475 kts | 28° |
| 2026-05-05 16:39 | 54.95729 | 15.72294 | 36920 ft | 481 kts | 43° |
| 2026-05-05 16:40 | 55.00366 | 15.80714 | 36901 ft | 482 kts | 44° |
| 2026-05-05 16:40 | 55.04983 | 15.89151 | 36905 ft | 481 kts | 43° |
| 2026-05-05 16:41 | 55.09631 | 15.97546 | 36906 ft | 480 kts | 43° |
| 2026-05-05 16:41 | 55.14281 | 16.05911 | 36906 ft | 480 kts | 43° |
| 2026-05-05 16:42 | 55.18929 | 16.14292 | 36906 ft | 480 kts | 43° |
| 2026-05-05 16:42 | 55.23568 | 16.22690 | 36938 ft | 480 kts | 43° |
| 2026-05-05 16:43 | 55.28203 | 16.31115 | 36912 ft | 480 kts | 43° |
| 2026-05-05 16:43 | 55.32805 | 16.39513 | 36905 ft | 480 kts | 43° |
| 2026-05-05 16:44 | 55.37425 | 16.47974 | 36906 ft | 480 kts | 43° |
| 2026-05-05 16:44 | 55.42040 | 16.56454 | 36902 ft | 480 kts | 43° |
| 2026-05-05 16:45 | 55.46648 | 16.64954 | 36921 ft | 480 kts | 43° |
| 2026-05-05 16:45 | 55.51258 | 16.73486 | 36901 ft | 480 kts | 44° |
| 2026-05-05 16:46 | 55.55856 | 16.82029 | 36902 ft | 480 kts | 44° |
| 2026-05-05 16:46 | 55.60452 | 16.90599 | 36893 ft | 480 kts | 44° |
| 2026-05-05 16:47 | 55.65038 | 16.99182 | 36897 ft | 480 kts | 44° |
| 2026-05-05 16:47 | 55.69618 | 17.07786 | 36894 ft | 480 kts | 44° |
| 2026-05-05 16:48 | 55.74193 | 17.16410 | 36902 ft | 480 kts | 44° |
| 2026-05-05 16:48 | 55.78762 | 17.25047 | 36895 ft | 479 kts | 44° |
| 2026-05-05 16:49 | 55.83400 | 17.33539 | 36897 ft | 479 kts | 43° |
| 2026-05-05 16:49 | 55.88077 | 17.41978 | 36920 ft | 478 kts | 43° |
| 2026-05-05 16:50 | 55.92735 | 17.50451 | 36903 ft | 479 kts | 43° |
| 2026-05-05 16:50 | 55.97376 | 17.58957 | 36897 ft | 478 kts | 43° |
| 2026-05-05 16:51 | 56.02010 | 17.67489 | 36893 ft | 478 kts | 43° |
| 2026-05-05 16:51 | 56.06631 | 17.76029 | 36893 ft | 478 kts | 43° |
| 2026-05-05 16:52 | 56.11214 | 17.84528 | 36906 ft | 478 kts | 43° |
| 2026-05-05 16:52 | 56.15831 | 17.93118 | 36902 ft | 478 kts | 43° |
| 2026-05-05 16:53 | 56.20407 | 18.01762 | 36891 ft | 478 kts | 45° |
| 2026-05-05 16:53 | 56.24862 | 18.10648 | 36898 ft | 478 kts | 46° |
| 2026-05-05 16:54 | 56.29287 | 18.19601 | 36901 ft | 479 kts | 46° |
| 2026-05-05 16:54 | 56.33724 | 18.28560 | 36903 ft | 480 kts | 46° |
| 2026-05-05 16:55 | 56.38175 | 18.37541 | 36902 ft | 480 kts | 46° |
| 2026-05-05 16:55 | 56.42630 | 18.46555 | 36902 ft | 481 kts | 46° |
| 2026-05-05 16:56 | 56.47082 | 18.55595 | 36901 ft | 482 kts | 46° |
| 2026-05-05 16:56 | 56.51532 | 18.64668 | 36902 ft | 482 kts | 46° |
| 2026-05-05 16:57 | 56.55978 | 18.73770 | 36903 ft | 483 kts | 46° |
| 2026-05-05 16:57 | 56.60431 | 18.82921 | 36899 ft | 484 kts | 46° |
| 2026-05-05 16:58 | 56.64877 | 18.92094 | 36878 ft | 484 kts | 46° |
| 2026-05-05 16:58 | 56.69311 | 19.01276 | 36896 ft | 483 kts | 46° |
| 2026-05-05 16:59 | 56.73742 | 19.10489 | 36923 ft | 484 kts | 46° |
| 2026-05-05 16:59 | 56.78173 | 19.19735 | 36899 ft | 484 kts | 46° |
| 2026-05-05 17:00 | 56.82593 | 19.28995 | 36897 ft | 484 kts | 46° |
| 2026-05-05 17:00 | 56.86980 | 19.38224 | 36899 ft | 484 kts | 46° |
| 2026-05-05 17:01 | 56.91385 | 19.47527 | 36896 ft | 484 kts | 46° |
| 2026-05-05 17:01 | 56.95788 | 19.56862 | 36912 ft | 484 kts | 46° |
| 2026-05-05 17:02 | 57.00182 | 19.66215 | 36895 ft | 484 kts | 46° |
| 2026-05-05 17:02 | 57.03830 | 19.74007 | 36894 ft | 484 kts | 46° |
| 2026-05-05 17:03 | 57.08213 | 19.83405 | 36899 ft | 484 kts | 47° |
| 2026-05-05 17:03 | 57.12582 | 19.92808 | 36885 ft | 483 kts | 47° |
| 2026-05-05 17:04 | 57.16939 | 20.02223 | 36895 ft | 483 kts | 47° |
| 2026-05-05 17:04 | 57.21293 | 20.11669 | 36897 ft | 483 kts | 47° |
| 2026-05-05 17:05 | 57.25634 | 20.21125 | 36894 ft | 483 kts | 47° |
| 2026-05-05 17:05 | 57.29973 | 20.30616 | 36893 ft | 483 kts | 47° |
| 2026-05-05 17:06 | 57.34307 | 20.40132 | 36893 ft | 483 kts | 47° |
| 2026-05-05 17:06 | 57.38637 | 20.49678 | 36902 ft | 485 kts | 47° |
| 2026-05-05 17:07 | 57.42968 | 20.59264 | 36906 ft | 485 kts | 47° |
| 2026-05-05 17:07 | 57.47300 | 20.68891 | 36897 ft | 486 kts | 47° |
| 2026-05-05 17:08 | 57.51624 | 20.78542 | 36897 ft | 487 kts | 47° |
| 2026-05-05 17:08 | 57.55958 | 20.88254 | 36894 ft | 487 kts | 48° |
| 2026-05-05 17:09 | 57.60236 | 20.97885 | 36866 ft | 471 kts | 48° |
| 2026-05-05 17:09 | 57.62289 | 21.02527 | 36879 ft | 456 kts | 47° |
| 2026-05-05 17:09 | 57.64283 | 21.07043 | 36591 ft | 450 kts | 47° |
| 2026-05-05 17:10 | 57.66294 | 21.11591 | 35718 ft | 460 kts | 47° |
| 2026-05-05 17:10 | 57.68324 | 21.16186 | 34925 ft | 468 kts | 48° |
| 2026-05-05 17:10 | 57.70396 | 21.20892 | 34430 ft | 468 kts | 48° |
| 2026-05-05 17:10 | 57.72447 | 21.25566 | 34132 ft | 462 kts | 48° |
| 2026-05-05 17:11 | 57.74499 | 21.30258 | 33823 ft | 457 kts | 48° |
| 2026-05-05 17:11 | 57.76476 | 21.34785 | 33406 ft | 453 kts | 48° |
| 2026-05-05 17:11 | 57.78467 | 21.39350 | 32919 ft | 452 kts | 48° |
| 2026-05-05 17:11 | 57.80457 | 21.43917 | 32421 ft | 452 kts | 48° |
| 2026-05-05 17:12 | 57.82442 | 21.48484 | 31936 ft | 452 kts | 48° |
| 2026-05-05 17:12 | 57.84422 | 21.53048 | 31538 ft | 449 kts | 48° |
| 2026-05-05 17:12 | 57.88751 | 21.63060 | 30700 ft | 443 kts | 48° |
| 2026-05-05 17:13 | 57.90687 | 21.67551 | 30305 ft | 441 kts | 48° |
| 2026-05-05 17:13 | 57.92613 | 21.72027 | 29904 ft | 439 kts | 48° |
| 2026-05-05 17:13 | 57.94522 | 21.76473 | 29571 ft | 435 kts | 48° |
| 2026-05-05 17:14 | 57.97817 | 21.84181 | 29056 ft | 425 kts | 48° |
| 2026-05-05 17:14 | 57.99670 | 21.88527 | 28830 ft | 427 kts | 48° |
| 2026-05-05 17:14 | 58.01550 | 21.92941 | 28556 ft | 435 kts | 48° |
| 2026-05-05 17:14 | 58.03452 | 21.97412 | 28259 ft | 438 kts | 48° |
| 2026-05-05 17:15 | 58.05348 | 22.01886 | 27979 ft | 436 kts | 49° |
| 2026-05-05 17:15 | 58.07227 | 22.06327 | 27707 ft | 434 kts | 49° |
| 2026-05-05 17:15 | 58.09107 | 22.10780 | 27448 ft | 432 kts | 49° |
| 2026-05-05 17:15 | 58.10973 | 22.15210 | 27176 ft | 430 kts | 49° |
| 2026-05-05 17:16 | 58.12809 | 22.19572 | 26908 ft | 428 kts | 49° |
| 2026-05-05 17:16 | 58.14658 | 22.23976 | 26641 ft | 427 kts | 49° |
| 2026-05-05 17:16 | 58.16501 | 22.28372 | 26392 ft | 426 kts | 49° |
| 2026-05-05 17:16 | 58.18338 | 22.32762 | 26142 ft | 424 kts | 49° |
| 2026-05-05 17:17 | 58.20168 | 22.37142 | 25920 ft | 423 kts | 49° |
| 2026-05-05 17:17 | 58.21992 | 22.41515 | 25668 ft | 422 kts | 49° |
| 2026-05-05 17:17 | 58.23810 | 22.45883 | 25421 ft | 422 kts | 49° |
| 2026-05-05 17:17 | 58.25626 | 22.50255 | 25184 ft | 421 kts | 49° |
| 2026-05-05 17:18 | 58.27435 | 22.54617 | 24934 ft | 420 kts | 49° |
| 2026-05-05 17:18 | 58.29237 | 22.58971 | 24698 ft | 419 kts | 49° |
| 2026-05-05 17:18 | 58.31038 | 22.63331 | 24457 ft | 418 kts | 49° |
| 2026-05-05 17:18 | 58.32830 | 22.67677 | 24220 ft | 418 kts | 49° |
| 2026-05-05 17:19 | 58.34618 | 22.72021 | 23981 ft | 417 kts | 49° |
| 2026-05-05 17:19 | 58.36403 | 22.76366 | 23739 ft | 416 kts | 49° |
| 2026-05-05 17:19 | 58.38180 | 22.80700 | 23499 ft | 414 kts | 49° |
| 2026-05-05 17:19 | 58.39952 | 22.85027 | 23235 ft | 413 kts | 49° |
| 2026-05-05 17:20 | 58.41715 | 22.89342 | 23005 ft | 412 kts | 49° |
| 2026-05-05 17:20 | 58.43473 | 22.93652 | 22731 ft | 411 kts | 49° |
| 2026-05-05 17:20 | 58.45227 | 22.97961 | 22458 ft | 410 kts | 49° |
| 2026-05-05 17:20 | 58.46971 | 23.02253 | 22188 ft | 408 kts | 49° |
| 2026-05-05 17:21 | 58.48710 | 23.06540 | 21882 ft | 407 kts | 49° |
| 2026-05-05 17:21 | 58.50437 | 23.10807 | 21616 ft | 405 kts | 49° |
| 2026-05-05 17:21 | 58.52152 | 23.15053 | 21354 ft | 403 kts | 49° |
| 2026-05-05 17:22 | 58.55554 | 23.23493 | 20839 ft | 396 kts | 49° |
| 2026-05-05 17:22 | 58.57227 | 23.27657 | 20501 ft | 393 kts | 49° |
| 2026-05-05 17:22 | 58.58886 | 23.31792 | 20163 ft | 390 kts | 49° |
| 2026-05-05 17:22 | 58.60537 | 23.35913 | 19823 ft | 388 kts | 49° |
| 2026-05-05 17:23 | 58.62177 | 23.40013 | 19482 ft | 387 kts | 49° |
| 2026-05-05 17:23 | 58.63810 | 23.44100 | 19107 ft | 386 kts | 49° |
| 2026-05-05 17:23 | 58.65442 | 23.48196 | 18755 ft | 385 kts | 49° |
| 2026-05-05 17:23 | 58.67064 | 23.52271 | 18407 ft | 383 kts | 49° |
| 2026-05-05 17:24 | 58.68678 | 23.56333 | 18035 ft | 382 kts | 49° |
| 2026-05-05 17:24 | 58.70285 | 23.60386 | 17658 ft | 380 kts | 49° |
| 2026-05-05 17:24 | 58.71881 | 23.64420 | 17303 ft | 377 kts | 49° |
| 2026-05-05 17:24 | 58.73460 | 23.68418 | 16953 ft | 375 kts | 49° |
| 2026-05-05 17:25 | 58.75033 | 23.72404 | 16614 ft | 372 kts | 49° |
| 2026-05-05 17:25 | 58.76066 | 23.75028 | 16383 ft | 370 kts | 49° |
| 2026-05-05 17:25 | 58.78132 | 23.80282 | 15943 ft | 367 kts | 49° |
| 2026-05-05 17:25 | 58.79668 | 23.84194 | 15612 ft | 364 kts | 49° |
| 2026-05-05 17:26 | 58.81192 | 23.88085 | 15281 ft | 362 kts | 49° |
| 2026-05-05 17:26 | 58.82707 | 23.91955 | 14968 ft | 361 kts | 50° |
| 2026-05-05 17:26 | 58.84217 | 23.95819 | 14608 ft | 360 kts | 50° |
| 2026-05-05 17:26 | 58.85718 | 23.99670 | 14278 ft | 358 kts | 50° |
| 2026-05-05 17:27 | 58.87212 | 24.03508 | 13943 ft | 357 kts | 50° |
| 2026-05-05 17:27 | 58.88700 | 24.07334 | 13610 ft | 355 kts | 50° |
| 2026-05-05 17:27 | 58.90180 | 24.11148 | 13235 ft | 353 kts | 50° |
| 2026-05-05 17:27 | 58.91648 | 24.14937 | 12912 ft | 351 kts | 50° |
| 2026-05-05 17:28 | 58.93106 | 24.18708 | 12561 ft | 348 kts | 50° |
| 2026-05-05 17:28 | 58.94548 | 24.22442 | 12243 ft | 345 kts | 50° |
| 2026-05-05 17:28 | 58.95977 | 24.26149 | 11929 ft | 342 kts | 51° |
| 2026-05-05 17:28 | 58.97397 | 24.29837 | 11616 ft | 340 kts | 51° |
| 2026-05-05 17:29 | 58.98803 | 24.33496 | 11301 ft | 337 kts | 51° |
| 2026-05-05 17:29 | 59.00202 | 24.37140 | 10997 ft | 335 kts | 51° |
| 2026-05-05 17:29 | 59.01590 | 24.40761 | 10679 ft | 333 kts | 51° |
| 2026-05-05 17:29 | 59.02967 | 24.44360 | 10398 ft | 332 kts | 51° |
| 2026-05-05 17:30 | 59.04340 | 24.47955 | 10073 ft | 331 kts | 51° |
| 2026-05-05 17:30 | 59.05702 | 24.51526 | 9895 ft | 324 kts | 51° |
| 2026-05-05 17:30 | 59.07036 | 24.55030 | 9611 ft | 322 kts | 51° |
| 2026-05-05 17:30 | 59.08361 | 24.58514 | 9301 ft | 320 kts | 51° |
| 2026-05-05 17:31 | 59.09683 | 24.61981 | 9010 ft | 317 kts | 51° |
| 2026-05-05 17:31 | 59.10991 | 24.65419 | 8714 ft | 314 kts | 51° |
| 2026-05-05 17:31 | 59.12282 | 24.68822 | 8429 ft | 312 kts | 51° |
| 2026-05-05 17:31 | 59.13564 | 24.72209 | 8145 ft | 309 kts | 51° |
| 2026-05-05 17:32 | 59.14828 | 24.75558 | 7868 ft | 306 kts | 51° |
| 2026-05-05 17:32 | 59.16081 | 24.78881 | 7598 ft | 303 kts | 51° |
| 2026-05-05 17:32 | 59.17320 | 24.82173 | 7327 ft | 300 kts | 51° |
| 2026-05-05 17:32 | 59.18551 | 24.85450 | 7050 ft | 298 kts | 51° |
| 2026-05-05 17:33 | 59.19766 | 24.88687 | 6786 ft | 295 kts | 51° |
| 2026-05-05 17:33 | 59.20970 | 24.91900 | 6524 ft | 292 kts | 51° |
| 2026-05-05 17:33 | 59.22157 | 24.95071 | 6264 ft | 290 kts | 51° |
| 2026-05-05 17:33 | 59.23339 | 24.98235 | 5980 ft | 287 kts | 51° |
| 2026-05-05 17:34 | 59.24510 | 25.01373 | 5713 ft | 284 kts | 51° |
| 2026-05-05 17:34 | 59.25668 | 25.04480 | 5454 ft | 281 kts | 51° |
| 2026-05-05 17:34 | 59.26810 | 25.07551 | 5201 ft | 278 kts | 51° |
| 2026-05-05 17:34 | 59.27941 | 25.10590 | 4944 ft | 275 kts | 51° |
| 2026-05-05 17:35 | 59.29057 | 25.13593 | 4694 ft | 272 kts | 51° |
| 2026-05-05 17:35 | 59.30163 | 25.16575 | 4428 ft | 269 kts | 51° |
| 2026-05-05 17:35 | 59.31238 | 25.19477 | 4378 ft | 259 kts | 50° |
| 2026-05-05 17:35 | 59.32335 | 25.22193 | 4274 ft | 250 kts | 38° |
| 2026-05-05 17:36 | 59.33830 | 25.23633 | 4184 ft | 235 kts | 7° |
| 2026-05-05 17:36 | 59.35419 | 25.23955 | 4089 ft | 226 kts | 356° |
| 2026-05-05 17:36 | 59.36977 | 25.23979 | 3992 ft | 222 kts | 355° |
| 2026-05-05 17:36 | 59.38512 | 25.23975 | 3820 ft | 220 kts | 352° |
| 2026-05-05 17:37 | 59.39919 | 25.23156 | 3609 ft | 207 kts | 321° |
| 2026-05-05 17:37 | 59.40585 | 25.21870 | 3467 ft | 201 kts | 302° |
| 2026-05-05 17:37 | 59.41165 | 25.18537 | 3176 ft | 195 kts | 271° |
| 2026-05-05 17:37 | 59.41174 | 25.15838 | 2957 ft | 196 kts | 271° |
| 2026-05-05 17:38 | 59.41192 | 25.13157 | 2722 ft | 197 kts | 271° |
| 2026-05-05 17:38 | 59.41241 | 25.10460 | 2546 ft | 197 kts | 273° |
| 2026-05-05 17:38 | 59.41304 | 25.07762 | 2317 ft | 200 kts | 271° |
| 2026-05-05 17:38 | 59.41315 | 25.05059 | 2045 ft | 201 kts | 270° |
| 2026-05-05 17:39 | 59.41313 | 25.02336 | 1770 ft | 195 kts | 270° |
| 2026-05-05 17:39 | 59.41312 | 24.99680 | 1505 ft | 190 kts | 270° |
| 2026-05-05 17:39 | 59.41313 | 24.97147 | 1239 ft | 178 kts | 270° |
| 2026-05-05 17:39 | 59.41314 | 24.94858 | 976 ft | 162 kts | 270° |
| 2026-05-05 17:40 | 59.41305 | 24.92775 | 809 ft | 141 kts | 267° |
| 2026-05-05 17:40 | 59.41300 | 24.90912 | 636 ft | 135 kts | 270° |
| 2026-05-05 17:40 | 59.41302 | 24.89093 | 427 ft | 132 kts | 268° |
| 2026-05-05 17:40 | 59.41308 | 24.87311 | 253 ft | 130 kts | 269° |
| 2026-05-05 17:41 | 59.41316 | 24.85584 | 164 ft | 117 kts | 272° |
| 2026-05-05 17:41 | 59.41324 | 24.84257 | 160 ft | 79 kts | 269° |
| 2026-05-05 17:41 | 59.41322 | 24.83520 | 163 ft | 49 kts | 270° |
| 2026-05-05 17:41 | 59.41331 | 24.82975 | 160 ft | 36 kts | 277° |
| 2026-05-05 17:42 | 59.41377 | 24.82608 | 159 ft | 20 kts | 292° |
| 2026-05-05 17:42 | 59.41442 | 24.82394 | 161 ft | 15 kts | 300° |
| 2026-05-05 17:42 | 59.41468 | 24.82309 | 161 ft | 7 kts | 300° |
| 2026-05-05 17:42 | 59.41492 | 24.82211 | 161 ft | 9 kts | 287° |
| 2026-05-05 17:43 | 59.41502 | 24.82081 | 161 ft | 11 kts | 273° |
| 2026-05-05 17:43 | 59.41503 | 24.81928 | 161 ft | 13 kts | 270° |
| 2026-05-05 17:43 | 59.41504 | 24.81736 | 161 ft | 15 kts | 270° |
| 2026-05-05 17:43 | 59.41503 | 24.81520 | 161 ft | 17 kts | 269° |
| 2026-05-05 17:44 | 59.41504 | 24.81295 | 161 ft | 18 kts | 271° |
| 2026-05-05 17:44 | 59.41505 | 24.81287 | 161 ft | 18 kts | 271° |
| 2026-05-05 17:44 | 59.41551 | 24.81170 | 161 ft | 2 kts | 4° |
| 2026-05-05 17:44 | 59.41579 | 24.81178 | 161 ft | 8 kts | 8° |
| 2026-05-05 17:45 | 59.41655 | 24.81145 | 161 ft | 16 kts | 307° |
| 2026-05-05 17:45 | 59.41665 | 24.80897 | 161 ft | 20 kts | 270° |
| 2026-05-05 17:45 | 59.41666 | 24.80609 | 161 ft | 18 kts | 271° |
| 2026-05-05 17:45 | 59.41731 | 24.80426 | 161 ft | 16 kts | 297° |
| 2026-05-05 17:46 | 59.41747 | 24.80187 | 161 ft | 20 kts | 268° |
| 2026-05-05 17:46 | 59.41743 | 24.80077 | 161 ft | 5 kts | 247° |
| 2026-05-05 17:46 | 59.41711 | 24.80052 | 161 ft | 8 kts | 178° |
| 2026-05-05 17:46 | 59.41693 | 24.80051 | 161 ft | 0 kts | 182° |